Ride Results

Bremervale Justice Challenge (14-08-2020)
Ride distance: 80.0 km

Outcomes - Bremervale Justice Challenge (14-08-2020)
Division No. of Entries Retired / DNE Completed Withdrawn Ineligible V/O Percentage Completed
HW 4 - 3 - - 1 75.00%
MW 14 - 9 - - 5 64.29%
LW 9 - 7 - - 2 77.78%
JN 6 - 5 1 - - 83.33%
Totals 33 - 24 1 - 8 72.73%
Results - Bremervale Justice Challenge (14-08-2020)
No. Rider Horse Place Time Leg Speeds Total
Km/Hr
H/R bpm
Heavyweight
103 Dave Toft Jacobi TA 1 (BC) 7:32:12 11.6, 9.7 10.61 59, 44, 46 (Avg:45)
113 Natashja Burton Lindall Kalliope 2 7:38:34 11.9, 9.3 10.47 40, 43, 44 (Avg:43)
78 Sam Collins Dee Zyne Wizz Kid 3 7:51:16 10.6, 9.7 10.19 28, 32, 40 (Avg:36)
128 Rod Strahan Chelleason Elkhaan Lame L1 0:00:00 13.1 - 42, 44 (Avg:44)
Middleweight
109 Virginia Barber Sharla Park Leonidas 1 (BC) 3:53:35 21.7, 19.4 20.55 45, 46, 46 (Avg:46)
107 Ella Grimeau Miva Majnoun 2 4:24:21 18.1, 18.2 18.16 51, 52, 52 (Avg:52)
79 Fiona Fenech Aqaba Bronson 3 6:02:24 13.2, 13.2 13.25 42, 40, 47 (Avg:43)
122 Angela Head Jazda Conan 4 6:15:34 12.9, 12.5 12.78 26, 46, 52 (Avg:49)
110 Andrea Dunsby De-Sharvarll El Dakar 5 6:34:52 13.2, 11.2 12.16 32, 38, 49 (Avg:43)
114 David Cleland Crystabettina 6 6:42:57 12.8, 11.0 11.91 36, 44, 48 (Avg:46)
129 Lachlan Harris Crystalilly 7 6:43:14 12.8, 11.0 11.90 33, 44, 48 (Avg:46)
112 Joy Craig Zameel Rafiq 8 6:43:20 12.8, 11.0 11.90 43, 48, 51 (Avg:49)
115 Barb Woods Geneva 9 6:51:00 12.5, 10.9 11.68 42, 44, 44 (Avg:44)
111 John Dugan Performance Park Illusion Lame L2 0:00:00 13.2, 11.2 - 32, 37, 50 (Avg:43)
76 Rosemary Hull Lindall Cher Lame L2 0:00:00 10.6, 9.7 - 30, 36, 44 (Avg:40)
121 Emilie Jensen Monster Energy Lame L2 0:00:00 12.9, 12.7 - 41, 45, 44 (Avg:44)
117 Jo Barsby Shardell Magic Moment Lame L1 0:00:00 11.9 - 38, 47 (Avg:47)
84 Lexi Morton Arny's Bad Moon Arisin Lame L1 0:00:00 14.8 - 33, 44 (Avg:44)
Lightweight
132 Shelley Chapman Cameo Bizmarck 1 4:27:58 18.5, 17.2 17.91 32, 48, 47 (Avg:47)
119 Nez Lewis Joey The Patch 1 4:27:58 18.1, 17.6 17.91 33, 44, 47 (Avg:45)
118 Karen Winkel Ranek Boz 1 (BC) 4:27:58 18.1, 17.6 17.91 34, 41, 40 (Avg:40)
124 Candice Gurtner Ya-Bint-Al-Hawa 4 6:26:55 13.1, 11.7 12.41 35, 50, 55 (Avg:52)
123 Donna Taylor Picnic Park Bahretta 5 6:26:57 13.1, 11.7 12.40 39, 51, 50 (Avg:50)
108 Ema Basic S'Shaada Quickstep 6 6:32:53 12.5, 11.9 12.22 40, 44, 48 (Avg:46)
116 Pandora Bevan My Fair Lady 7 6:51:00 12.5, 10.9 11.68 40, 43, 49 (Avg:46)
125 Julie Fitzpatrick Edenfels Pegasus Lame L1 0:00:00 11.6 - 38
131 Maeve Paten Murrayvale Summer Wine Lame L1 0:00:00 12.9 - 30, 39 (Avg:39)
Junior
82 Georgia Morton Ramalea Magnum 1 (BC) 5:30:28 14.8, 14.1 14.52 36, 42, 50 (Avg:46)
120 Ben Hoey Bonnybrooke Waratah 2 6:14:05 12.9, 12.7 12.83 53, 44, 56 (Avg:50)
130 Emily Bell Katushka 3 6:43:03 12.8, 11.0 11.91 32, 41, 45 (Avg:43)
83 Charlize Renner Sherloch 4 7:32:01 11.6, 9.7 10.62 37, 40, 44 (Avg:42)
127 Molly Renner Matta Mia Qaddara 5 7:32:03 11.6, 9.7 10.62 41, 52, 44 (Avg:48)
106 Eadie McWilliam Nora Jones te W/D on track L2 0:00:00 - - 35, 40, 44 (Avg:42)